Time;durP1;ratioP1;P1;durP2;ratioP2;P2;SDS_P1;SDS_P2;PMS_P1;PMS_P2;Temp;Humidity;BMP_temperature;BMP_pressure;BME280_temperature;BME280_humidity;BME280_pressure;Samples;Min_cycle;Max_cycle;Signal;HPM_P1;HPM_P2
2021/04/10 00:01:55;;;;;;;24.70;19.40;;;;;;;4.37;50.13;101291.39;1599791;87;21145;-81
2021/04/10 00:04:22;;;;;;;27.40;20.23;;;;;;;4.34;50.25;101294.27;1580183;89;21195;-82
2021/04/10 00:06:53;;;;;;;24.30;19.17;;;;;;;4.30;50.37;101284.93;1565849;90;21196;-86
2021/04/10 00:09:22;;;;;;;26.20;17.50;;;;;;;4.31;50.59;101289.72;1601095;88;21216;-82
2021/04/10 00:11:51;;;;;;;23.93;18.03;;;;;;;4.27;50.72;101291.77;1583675;87;21106;-83
2021/04/10 00:14:18;;;;;;;27.23;19.63;;;;;;;4.25;50.50;101285.28;1596818;89;21186;-83
2021/04/10 00:18:53;;;;;;;25.70;19.67;;;;;;;4.20;50.17;101290.12;1760793;79;23608;-82
2021/04/10 00:21:21;;;;;;;24.87;17.57;;;;;;;4.13;50.03;101289.42;1731049;82;21344;-84
2021/04/10 00:23:48;;;;;;;20.93;16.73;;;;;;;4.14;49.84;101288.44;1664706;82;21104;-82
2021/04/10 00:27:05;;;;;;;20.13;15.47;;;;;;;4.16;49.83;101286.51;1665901;84;21189;-82
2021/04/10 00:29:36;;;;;;;27.50;18.13;;;;;;;4.16;49.74;101280.75;1673088;84;21228;-83
2021/04/10 00:32:05;;;;;;;30.90;18.10;;;;;;;4.14;49.79;101283.98;1674717;84;21207;-83
2021/04/10 00:34:33;;;;;;;22.93;16.83;;;;;;;4.13;49.87;101284.97;1682918;83;21228;-84
2021/04/10 00:37:00;;;;;;;22.57;16.10;;;;;;;4.15;49.69;101283.53;1701902;83;21322;-82
2021/04/10 00:39:26;;;;;;;;;;;;;;;4.15;49.89;101288.32;1695686;84;21346;-83
2021/04/10 00:41:53;;;;;;;19.27;14.20;;;;;;;4.12;49.94;101277.17;1699135;83;20202;-80
2021/04/10 00:44:21;;;;;;;23.47;16.40;;;;;;;4.09;50.42;101280.91;1681844;83;21728;-79
2021/04/10 00:46:50;;;;;;;;;;;;;;;4.10;50.52;101278.61;1669817;84;21254;-80
2021/04/10 00:49:19;;;;;;;22.30;17.63;;;;;;;3.78;50.61;101231.06;1660242;84;20203;-81
2021/04/10 00:51:48;;;;;;;23.47;18.13;;;;;;;4.01;50.95;101276.25;1661131;84;21240;-81
2021/04/10 00:54:14;;;;;;;;;;;;;;;4.02;51.21;101279.22;1676264;84;21229;-82
2021/04/10 00:56:41;;;;;;;27.97;20.03;;;;;;;4.00;51.58;101277.68;1676833;83;20216;-79
2021/04/10 00:59:08;;;;;;;24.87;19.43;;;;;;;3.92;52.08;101274.34;1687082;83;21176;-82
2021/04/10 01:01:35;;;;;;;29.03;19.97;;;;;;;3.90;52.56;101285.49;1652320;83;21833;-83
2021/04/10 01:04:05;;;;;;;31.50;21.00;;;;;;;3.86;52.62;101286.67;1662800;85;21159;-82
2021/04/10 01:06:33;;;;;;;30.73;20.17;;;;;;;3.81;53.12;101291.00;1649128;85;21183;-83
2021/04/10 01:09:01;;;;;;;30.57;20.87;;;;;;;3.79;53.37;101287.66;1649702;85;21938;-82
2021/04/10 01:12:22;;;;;;;28.97;20.03;;;;;;;3.75;53.67;101294.13;1667511;84;21026;-84
2021/04/10 01:15:00;;;;;;;30.17;19.97;;;;;;;3.70;53.91;101289.20;1713122;82;21199;-85
2021/04/10 01:17:31;;;;;;;29.00;20.07;;;;;;;3.65;53.83;101295.30;1701076;83;21184;-82
2021/04/10 01:20:09;;;;;;;26.50;18.73;;;;;;;3.64;53.69;101291.01;1669562;84;21212;-85
2021/04/10 01:23:29;;;;;;;26.87;19.93;;;;;;;3.62;53.74;101289.46;1656937;85;21294;-84
2021/04/10 01:26:07;;;;;;;25.23;19.80;;;;;;;3.60;53.67;101297.94;1645857;87;21195;-81
2021/04/10 01:29:03;;;;;;;28.37;20.47;;;;;;;3.59;53.46;101298.42;1629819;85;21208;-83
2021/04/10 01:31:44;;;;;;;27.87;19.97;;;;;;;3.57;53.55;101297.71;1626275;85;21222;-85
2021/04/10 01:34:22;;;;;;;26.67;20.50;;;;;;;3.57;53.82;101295.56;1635845;85;21129;-82
2021/04/10 01:36:52;;;;;;;30.52;21.40;;;;;;;3.55;53.95;101295.67;1636440;85;21574;-82
2021/04/10 01:39:20;;;;;;;30.77;20.63;;;;;;;3.52;53.92;101295.91;1631671;85;21578;-82
2021/04/10 01:41:51;;;;;;;27.33;21.07;;;;;;;3.51;53.99;101296.88;1642596;85;21212;-83
2021/04/10 01:44:20;;;;;;;30.33;20.13;;;;;;;3.47;53.82;101301.55;1640781;84;21235;-83
2021/04/10 01:46:49;;;;;;;28.07;20.53;;;;;;;3.48;54.06;101298.42;1674441;84;21687;-85
2021/04/10 01:49:16;;;;;;;31.40;21.97;;;;;;;3.43;54.30;101304.06;1655155;85;21199;-82
2021/04/10 01:51:45;;;;;;;26.07;20.30;;;;;;;3.41;54.45;101303.34;1676014;84;21195;-82
2021/04/10 01:54:15;;;;;;;28.60;20.03;;;;;;;3.35;54.74;101305.11;1671382;84;21173;-83
2021/04/10 01:56:46;;;;;;;26.50;20.33;;;;;;;3.31;54.69;101307.17;1650417;84;21202;-86
2021/04/10 01:59:16;;;;;;;27.80;20.63;;;;;;;3.30;54.85;101307.28;1653852;85;21155;-85
2021/04/10 02:01:50;;;;;;;29.60;21.10;;;;;;;3.29;55.03;101305.09;1621063;88;21025;-85
2021/04/10 02:04:18;;;;;;;30.40;20.37;;;;;;;3.25;54.86;101310.25;1627828;87;21246;-85
2021/04/10 02:06:49;;;;;;;29.23;21.47;;;;;;;3.25;54.93;101303.66;1621342;87;21778;-83
2021/04/10 02:09:20;;;;;;;22.33;17.10;;;;;;;3.25;54.80;101308.09;1623264;88;21153;-83
2021/04/10 02:11:50;;;;;;;25.43;19.23;;;;;;;3.19;54.60;101308.58;1622948;88;21125;-85
2021/04/10 02:14:51;;;;;;;27.03;19.27;;;;;;;3.25;54.72;101302.34;1790905;78;22905;-84
2021/04/10 02:17:19;;;;;;;24.33;19.77;;;;;;;3.19;54.79;101302.82;1766644;80;21481;-83
2021/04/10 02:19:50;;;;;;;30.63;19.50;;;;;;;3.17;54.78;101310.00;1782480;80;21314;-84
2021/04/10 02:22:20;;;;;;;28.23;19.37;;;;;;;3.16;54.64;101306.99;1733474;80;21207;-83
2021/04/10 02:24:50;;;;;;;24.23;18.60;;;;;;;3.17;54.74;101311.32;1645270;84;21325;-85
2021/04/10 02:27:17;;;;;;;24.70;19.10;;;;;;;3.13;54.68;101309.88;1659746;84;21286;-83
2021/04/10 02:29:58;;;;;;;27.47;20.53;;;;;;;3.16;54.97;101308.80;1777032;79;24138;-82
2021/04/10 02:33:00;;;;;;;27.43;18.97;;;;;;;3.09;55.12;101309.75;1729453;82;21230;-87
2021/04/10 02:35:49;;;;;;;25.73;18.00;;;;;;;3.08;54.87;101310.70;1750935;80;21180;-88
2021/04/10 02:38:21;;;;;;;24.77;18.73;;;;;;;3.03;55.07;101311.51;1740036;82;21326;-86
2021/04/10 02:40:56;;;;;;;25.43;18.70;;;;;;;3.05;54.93;101311.78;1722344;82;21145;-86
2021/04/10 02:43:30;;;;;;;29.30;20.47;;;;;;;3.05;55.12;101317.50;1728990;80;21625;-86
2021/04/10 02:46:02;;;;;;;22.37;16.87;;;;;;;2.81;55.08;101274.95;1714642;81;21061;-89
2021/04/10 02:48:53;;;;;;;28.80;20.13;;;;;;;3.01;55.08;101314.25;1691179;83;21795;-89
2021/04/10 02:51:25;;;;;;;24.83;17.90;;;;;;;3.02;55.04;101317.75;1673873;83;21398;-89
2021/04/10 02:53:54;;;;;;;22.50;16.93;;;;;;;2.99;55.04;101312.22;1658118;85;21198;-88
2021/04/10 02:56:26;;;;;;;23.10;16.90;;;;;;;2.98;55.04;101317.14;1662170;84;21166;-88
2021/04/10 02:58:55;;;;;;;27.03;18.97;;;;;;;2.96;54.90;101308.97;1654467;86;21333;-87
2021/04/10 03:01:28;;;;;;;26.17;18.27;;;;;;;2.96;54.78;101315.55;1641901;86;21832;-87
2021/04/10 03:03:58;;;;;;;23.50;16.47;;;;;;;2.96;54.85;101312.92;1671874;84;21804;-86
2021/04/10 03:06:30;;;;;;;25.93;17.40;;;;;;;2.98;54.47;101322.89;1619212;87;21197;-88
2021/04/10 03:09:02;;;;;;;22.00;16.67;;;;;;;2.99;54.51;101319.28;1672555;84;21168;-87
2021/04/10 03:11:33;;;;;;;22.30;16.97;;;;;;;2.97;54.49;101314.61;1615956;86;21108;-86
2021/04/10 03:14:06;;;;;;;22.03;18.73;;;;;;;2.99;54.48;101319.28;1650382;85;21171;-87
2021/04/10 03:16:35;;;;;;;24.77;17.67;;;;;;;3.05;54.38;101325.41;1640805;85;21586;-86
2021/04/10 03:19:10;;;;;;;26.93;19.43;;;;;;;3.06;54.28;101327.09;1611807;87;21178;-88
2021/04/10 03:21:41;;;;;;;22.13;17.87;;;;;;;3.09;54.13;101326.88;1640272;86;21218;-85
2021/04/10 03:24:15;;;;;;;24.00;17.83;;;;;;;3.09;54.10;101328.20;1597524;88;21162;-88
2021/04/10 03:26:43;;;;;;;24.40;18.47;;;;;;;3.09;54.19;101330.34;1643403;86;21418;-88
2021/04/10 03:29:13;;;;;;;21.43;15.93;;;;;;;3.12;53.92;101331.89;1614827;87;21308;-86
2021/04/10 03:31:42;;;;;;;26.13;19.60;;;;;;;3.14;53.73;101337.89;1655330;86;21204;-88
2021/04/10 03:34:13;;;;;;;23.03;17.33;;;;;;;3.19;53.63;101330.48;1639508;82;21064;-91
2021/04/10 03:36:41;;;;;;;25.40;17.87;;;;;;;3.23;53.71;101342.95;1599837;87;21199;-88
2021/04/10 03:39:09;;;;;;;26.07;17.67;;;;;;;3.23;53.47;101334.56;1625055;87;21260;-89
2021/04/10 03:41:42;;;;;;;21.80;17.83;;;;;;;3.39;53.41;101336.89;1619911;85;21208;-88
2021/04/10 03:44:12;;;;;;;22.00;16.97;;;;;;;3.54;52.86;101333.52;1630246;83;21160;-90
2021/04/10 03:46:40;;;;;;;24.23;17.47;;;;;;;3.63;52.60;101329.35;1633754;85;21699;-90
2021/04/10 03:49:08;;;;;;;26.13;17.33;;;;;;;3.71;52.24;101332.22;1636117;86;21205;-88
2021/04/10 03:51:36;;;;;;;27.90;17.50;;;;;;;3.82;52.09;101336.67;1667818;84;21219;-88
2021/04/10 03:54:07;;;;;;;21.17;16.47;;;;;;;4.01;51.65;101332.10;1655636;85;21219;-90
2021/04/10 03:56:38;;;;;;;26.10;17.70;;;;;;;4.27;50.96;101334.82;1675302;83;21127;-89
2021/04/10 03:59:07;;;;;;;22.53;17.27;;;;;;;4.48;50.54;101299.28;1680528;83;21356;-91
2021/04/10 04:01:39;;;;;;;24.73;16.40;;;;;;;5.08;49.10;101334.43;1635160;84;21750;-90
2021/04/10 04:04:10;;;;;;;23.93;17.90;;;;;;;5.42;48.19;101335.56;1615843;87;21214;-88
2021/04/10 04:06:39;;;;;;;24.33;19.33;;;;;;;5.76;48.02;101333.50;1610071;88;21230;-92
2021/04/10 04:09:08;;;;;;;23.50;17.77;;;;;;;6.21;47.09;101334.45;1602088;88;21186;-88
2021/04/10 04:11:35;;;;;;;21.90;16.93;;;;;;;6.62;46.65;101334.41;1620851;86;21818;-87
2021/04/10 04:14:09;;;;;;;28.60;19.63;;;;;;;7.00;45.78;101332.23;1547788;90;21217;-87
2021/04/10 04:16:38;;;;;;;21.47;17.13;;;;;;;7.41;45.46;101328.08;1608552;87;21271;-80
2021/04/10 04:19:05;;;;;;;26.73;19.00;;;;;;;7.70;43.51;101333.77;1555072;89;21202;-81
2021/04/10 04:21:33;;;;;;;23.17;19.13;;;;;;;7.65;43.52;101337.34;1619554;86;21220;-82
2021/04/10 04:24:00;;;;;;;24.20;17.33;;;;;;;7.55;43.99;101342.22;1613652;87;21276;-83
2021/04/10 04:26:29;;;;;;;23.97;17.80;;;;;;;7.68;43.52;101343.70;1628254;87;21225;-81
2021/04/10 04:28:56;;;;;;;23.47;17.60;;;;;;;7.57;43.37;101314.19;1631758;87;21200;-82
2021/04/10 04:31:23;;;;;;;25.07;18.43;;;;;;;7.91;43.01;101334.41;1645730;87;21228;-83
2021/04/10 04:33:50;;;;;;;19.60;17.43;;;;;;;7.86;42.29;101282.23;1643077;86;21065;-83
2021/04/10 04:36:17;;;;;;;22.13;17.40;;;;;;;8.38;41.97;101335.63;1666310;85;21235;-79
2021/04/10 04:38:44;;;;;;;21.23;18.10;;;;;;;8.62;41.28;101332.89;1661396;84;21176;-83
2021/04/10 04:41:12;;;;;;;20.53;16.60;;;;;;;8.89;40.74;101332.00;1656415;85;21227;-83
2021/04/10 04:43:39;;;;;;;22.03;17.20;;;;;;;8.96;40.05;101341.02;1668543;85;21297;-81
2021/04/10 04:46:06;;;;;;;21.63;16.70;;;;;;;9.13;39.53;101339.83;1687729;84;21266;-84
2021/04/10 04:48:33;;;;;;;22.23;16.10;;;;;;;9.38;39.53;101342.66;1688376;85;21229;-83
2021/04/10 04:51:00;;;;;;;18.40;15.80;;;;;;;9.85;38.63;101334.28;1689618;83;21370;-82
2021/04/10 04:53:27;;;;;;;20.30;15.77;;;;;;;9.37;37.36;101180.03;1675868;85;21204;-82
2021/04/10 04:55:55;;;;;;;17.70;14.80;;;;;;;10.70;36.61;101332.94;1689476;84;21067;-81
2021/04/10 04:58:22;;;;;;;18.67;15.00;;;;;;;10.83;35.80;101333.28;1689854;85;21282;-81
2021/04/10 05:00:49;;;;;;;19.67;14.23;;;;;;;10.85;35.13;101325.09;1670973;85;21460;-82
2021/04/10 05:03:16;;;;;;;20.50;15.37;;;;;;;10.87;34.83;101336.45;1677674;85;21426;-83
2021/04/10 05:05:43;;;;;;;19.87;14.87;;;;;;;10.76;34.92;101330.94;1684351;85;21204;-81
2021/04/10 05:08:10;;;;;;;24.57;14.63;;;;;;;10.62;35.42;101327.58;1689226;84;21766;-82
2021/04/10 05:10:37;;;;;;;17.10;12.90;;;;;;;10.41;35.04;101322.20;1689400;83;21233;-83
2021/04/10 05:13:04;;;;;;;16.73;13.30;;;;;;;10.17;35.45;101324.29;1676401;84;21220;-82
2021/04/10 05:15:31;;;;;;;16.23;13.00;;;;;;;10.21;35.72;101322.97;1689514;83;21184;-82
2021/04/10 05:17:58;;;;;;;16.47;13.07;;;;;;;10.35;35.10;101330.03;1690921;83;21212;-83
2021/04/10 05:20:25;;;;;;;15.77;12.07;;;;;;;10.13;34.89;101290.47;1668170;83;21239;-81
2021/04/10 05:22:55;;;;;;;15.47;12.50;;;;;;;10.40;34.76;101329.05;1690054;83;21133;-81
2021/04/10 05:25:24;;;;;;;14.03;10.60;;;;;;;10.28;34.72;101323.13;1688225;83;21216;-85
2021/04/10 05:27:52;;;;;;;14.47;12.13;;;;;;;10.01;34.86;101317.56;1688108;83;21330;-82
2021/04/10 05:30:24;;;;;;;15.30;11.80;;;;;;;9.93;35.45;101320.52;1659754;84;21222;-80
2021/04/10 05:32:51;;;;;;;16.57;11.70;;;;;;;10.02;35.03;101319.22;1652370;86;21378;-81
2021/04/10 05:35:18;;;;;;;14.93;12.03;;;;;;;10.10;35.20;101324.59;1648527;86;21101;-82
2021/04/10 05:37:45;;;;;;;15.43;11.87;;;;;;;10.16;35.05;101319.94;1649545;86;21204;-82
2021/04/10 05:40:14;;;;;;;13.83;12.37;;;;;;;10.38;35.06;101319.88;1648612;87;21761;-82
2021/04/10 05:42:41;;;;;;;14.03;11.37;;;;;;;10.70;34.80;101329.77;1649862;87;21375;-81
2021/04/10 05:45:10;;;;;;;14.03;11.20;;;;;;;10.94;34.09;101328.09;1647174;85;21654;-82
2021/04/10 05:47:37;;;;;;;15.20;12.20;;;;;;;10.97;34.16;101325.61;1654975;87;21168;-83
2021/04/10 05:50:05;;;;;;;13.43;11.30;;;;;;;10.94;34.16;101336.61;1652376;85;21194;-78
2021/04/10 05:52:34;;;;;;;14.63;12.80;;;;;;;10.91;34.72;101330.61;1653210;86;21172;-80
2021/04/10 05:55:03;;;;;;;16.80;13.33;;;;;;;10.96;34.84;101331.94;1634605;87;21322;-81
2021/04/10 05:57:31;;;;;;;14.60;13.10;;;;;;;11.08;34.87;101330.11;1658497;87;21229;-89
2021/04/10 06:00:05;;;;;;;15.87;13.83;;;;;;;11.05;34.84;101330.43;1653002;85;21331;-86
2021/04/10 06:02:36;;;;;;;15.68;13.88;;;;;;;11.07;35.00;101335.09;1653811;86;21165;-85
2021/04/10 06:05:04;;;;;;;14.93;13.43;;;;;;;10.98;35.35;101332.13;1650409;86;21211;-85
2021/04/10 06:07:32;;;;;;;18.70;14.17;;;;;;;10.97;35.44;101334.45;1609972;88;22054;-86
2021/04/10 06:10:04;;;;;;;16.30;13.50;;;;;;;10.93;35.96;101334.45;1612199;88;21242;-84
2021/04/10 06:12:30;;;;;;;18.43;14.23;;;;;;;10.84;36.20;101338.11;1635676;85;21113;-83
2021/04/10 06:14:58;;;;;;;18.10;14.97;;;;;;;10.55;36.80;101333.22;1657785;85;21209;-84
2021/04/10 06:17:25;;;;;;;18.97;15.60;;;;;;;10.53;37.07;101334.74;1628417;86;21329;-83
2021/04/10 06:19:52;;;;;;;16.47;14.47;;;;;;;10.64;37.12;101335.77;1647256;87;21165;-83
2021/04/10 06:22:21;;;;;;;16.07;14.37;;;;;;;10.60;37.07;101330.91;1635390;85;21172;-85
2021/04/10 06:24:51;;;;;;;16.40;12.87;;;;;;;10.50;37.54;101328.39;1642440;86;21169;-83
2021/04/10 06:27:18;;;;;;;17.90;16.00;;;;;;;10.65;36.87;101325.41;1652772;85;21188;-84
2021/04/10 06:29:49;;;;;;;17.13;13.83;;;;;;;10.86;37.21;101333.44;1631590;86;21255;-84
2021/04/10 06:32:19;;;;;;;14.80;13.20;;;;;;;11.08;36.58;101331.44;1658033;85;21339;-84
2021/04/10 06:34:47;;;;;;;17.40;14.40;;;;;;;11.29;36.28;101332.25;1620642;86;21134;-83
2021/04/10 06:37:14;;;;;;;15.47;13.13;;;;;;;11.52;35.69;101332.06;1629867;86;21225;-83
2021/04/10 06:39:43;;;;;;;15.63;12.40;;;;;;;11.44;35.72;101324.39;1616974;88;21208;-82
2021/04/10 06:42:12;;;;;;;14.90;12.13;;;;;;;11.61;35.16;101330.53;1630313;86;21232;-85
2021/04/10 06:44:39;;;;;;;16.33;11.23;;;;;;;11.78;35.03;101331.83;1600897;88;21139;-82
2021/04/10 06:47:07;;;;;;;17.00;11.47;;;;;;;11.64;34.53;101320.00;1585988;88;21215;-86
2021/04/10 06:49:36;;;;;;;11.93;10.63;;;;;;;11.49;35.07;101335.41;1567588;89;21264;-85
2021/04/10 06:52:06;;;;;;;12.60;10.57;;;;;;;11.43;35.05;101322.75;1555284;91;21903;-83
2021/04/10 06:54:38;;;;;;;13.77;12.37;;;;;;;11.42;34.41;101335.75;1605361;88;21208;-84
2021/04/10 06:57:18;;;;;;;14.30;10.97;;;;;;;11.24;35.02;101333.25;1619458;87;21152;-86
2021/04/10 06:59:58;;;;;;;11.73;10.23;;;;;;;11.08;35.55;101343.95;1621664;87;21228;-83
2021/04/10 07:02:29;;;;;;;11.43;10.23;;;;;;;10.79;35.89;101336.42;1631496;87;21643;-88
2021/04/10 07:04:57;;;;;;;15.07;11.77;;;;;;;10.65;36.31;101340.59;1624973;87;21202;-87
2021/04/10 07:07:25;;;;;;;14.13;12.23;;;;;;;10.60;36.44;101341.06;1620103;87;21213;-85
2021/04/10 07:09:53;;;;;;;12.27;9.40;;;;;;;10.60;36.50;101333.57;1638063;86;21203;-86
2021/04/10 07:12:22;;;;;;;12.10;10.70;;;;;;;10.58;35.91;101331.06;1630535;86;21105;-85
2021/04/10 07:14:53;;;;;;;11.60;10.23;;;;;;;10.48;36.20;101335.72;1630966;86;21164;-87
2021/04/10 07:17:51;;;;;;;11.17;9.93;;;;;;;10.51;36.19;101332.74;1810369;77;23343;-85
2021/04/10 07:20:29;;;;;;;10.60;9.50;;;;;;;10.36;36.31;101342.34;1776654;79;21366;-86
2021/04/10 07:23:04;;;;;;;16.77;11.93;;;;;;;10.31;36.82;101336.17;1708817;81;21160;-86
2021/04/10 07:25:34;;;;;;;11.13;9.97;;;;;;;10.24;36.86;101343.11;1677547;83;21231;-85
2021/04/10 07:28:23;;;;;;;11.07;9.83;;;;;;;10.13;37.28;101345.09;1647343;84;21227;-83
2021/04/10 07:31:03;;;;;;;12.57;9.23;;;;;;;10.09;37.43;101337.56;1639542;86;21217;-85
2021/04/10 07:33:34;;;;;;;9.67;8.57;;;;;;;10.21;36.91;101337.62;1659208;82;21552;-83
2021/04/10 07:36:05;;;;;;;12.30;8.57;;;;;;;10.00;36.90;101272.78;1690046;83;21359;-84
2021/04/10 07:38:37;;;;;;;15.10;7.87;;;;;;;10.53;35.86;101340.07;1649654;85;21255;-85
2021/04/10 07:41:17;;;;;;;;;;;;;;;10.53;35.69;101332.08;1625264;85;21822;-86
2021/04/10 07:43:45;;;;;;;7.27;6.63;;;;;;;10.57;35.58;101336.08;1681132;85;20189;-83
2021/04/10 07:46:23;;;;;;;8.60;6.00;;;;;;;10.57;34.82;101325.41;1674833;84;21503;-84
2021/04/10 07:49:11;;;;;;;7.60;5.53;;;;;;;10.64;34.60;101331.77;1680990;84;21666;-86
2021/04/10 07:51:56;;;;;;;5.42;4.70;;;;;;;10.75;33.74;101326.59;1676423;84;21771;-87
2021/04/10 07:54:39;;;;;;;5.57;4.90;;;;;;;10.80;33.60;101328.27;1646193;85;21229;-86
2021/04/10 07:57:11;;;;;;;6.60;5.90;;;;;;;10.79;33.92;101328.42;1676114;84;21531;-85
2021/04/10 07:59:53;;;;;;;8.47;6.20;;;;;;;10.79;33.44;101327.92;1688580;83;21808;-85
2021/04/10 08:02:23;;;;;;;7.73;5.87;;;;;;;10.80;32.89;101327.44;1666047;84;21413;-88
2021/04/10 08:04:58;;;;;;;7.77;5.67;;;;;;;10.76;33.08;101313.60;1657898;84;21326;-84
2021/04/10 08:07:28;;;;;;;8.13;5.53;;;;;;;10.82;33.43;101320.93;1691172;84;21694;-86
2021/04/10 08:10:07;;;;;;;5.43;4.97;;;;;;;10.86;33.28;101320.11;1690991;82;21364;-84
2021/04/10 08:12:38;;;;;;;5.97;5.37;;;;;;;10.56;33.44;101277.59;1651427;84;21189;-85
2021/04/10 08:15:10;;;;;;;6.63;5.97;;;;;;;10.93;32.98;101322.95;1655728;85;21757;-87
2021/04/10 08:17:43;;;;;;;6.97;5.63;;;;;;;11.02;33.02;101322.78;1661290;86;21694;-85
2021/04/10 08:23:22;;;;;;;6.92;5.47;;;;;;;11.13;33.06;101312.76;1787848;79;22856;-84
2021/04/10 08:25:50;;;;;;;6.23;5.40;;;;;;;11.04;32.36;101314.11;1774984;80;21202;-87
2021/04/10 08:28:18;;;;;;;5.50;4.97;;;;;;;11.08;33.17;101313.27;1781255;79;21459;-85
2021/04/10 08:30:47;;;;;;;6.97;6.27;;;;;;;11.17;33.36;101318.94;1791107;80;21157;-85
2021/04/10 08:33:14;;;;;;;6.50;5.97;;;;;;;11.25;33.07;101312.25;1791370;79;21211;-89
2021/04/10 08:35:41;;;;;;;6.70;6.10;;;;;;;11.30;32.15;101317.06;1758193;81;21314;-89
2021/04/10 08:38:09;;;;;;;6.07;5.57;;;;;;;11.13;31.76;101286.08;1746345;81;21762;-92
2021/04/10 08:40:37;;;;;;;9.73;5.83;;;;;;;11.32;31.01;101316.91;1719675;81;21406;-90
2021/04/10 08:43:08;;;;;;;7.73;4.87;;;;;;;11.12;31.51;101312.44;1735381;81;21869;-90
2021/04/10 08:45:38;;;;;;;9.30;5.37;;;;;;;11.03;31.87;101301.75;1739757;80;21087;-87
2021/04/10 08:48:10;;;;;;;6.03;5.13;;;;;;;10.96;31.47;101314.09;1735303;82;21199;-85
2021/04/10 08:50:39;;;;;;;6.17;5.17;;;;;;;10.83;31.77;101312.42;1688571;83;21741;-84
2021/04/10 08:53:34;;;;;;;7.10;5.60;;;;;;;10.67;32.66;101287.92;1739859;81;21196;-83
2021/04/10 08:56:11;;;;;;;5.90;4.93;;;;;;;10.88;32.86;101298.09;1714322;82;21591;-85
2021/04/10 08:58:42;;;;;;;5.78;5.28;;;;;;;10.98;32.79;101308.11;1714032;82;21187;-84
2021/04/10 09:01:31;;;;;;;7.33;6.37;;;;;;;11.02;32.65;101313.45;1703653;82;21305;-84
2021/04/10 09:03:54;;;;;;;6.53;6.03;;;;;;;11.04;32.78;101304.77;1708952;83;21196;-83
2021/04/10 09:06:39;;;;;;;6.83;6.17;;;;;;;11.05;32.97;101303.75;1696249;82;21208;-84
2021/04/10 09:09:18;;;;;;;6.40;5.83;;;;;;;11.11;32.96;101304.91;1704068;82;21226;-86
2021/04/10 09:11:49;;;;;;;6.93;5.53;;;;;;;11.17;32.43;101296.26;1660463;83;21135;-85
2021/04/10 09:14:41;;;;;;;6.63;6.10;;;;;;;10.31;32.81;101153.13;1676512;83;21199;-85
2021/04/10 09:17:09;;;;;;;7.03;6.33;;;;;;;11.24;32.83;101293.22;1681021;83;21203;-83
2021/04/10 09:19:37;;;;;;;6.03;5.40;;;;;;;11.35;32.28;101291.22;1653249;86;21653;-87
2021/04/10 09:22:06;;;;;;;6.03;5.47;;;;;;;11.40;32.09;101297.72;1613033;87;21741;-84
2021/04/10 09:24:47;;;;;;;7.43;6.73;;;;;;;11.37;31.83;101303.38;1616994;87;21234;-85
2021/04/10 09:27:31;;;;;;;6.47;5.95;;;;;;;11.39;31.61;101283.20;1824095;76;28172;-86
2021/04/10 09:30:01;;;;;;;5.78;5.00;;;;;;;11.50;31.28;101288.17;1757210;79;21132;-86
2021/04/10 09:32:41;;;;;;;6.10;5.50;;;;;;;11.65;30.62;101278.44;1785034;79;21458;-84
2021/04/10 09:35:20;;;;;;;6.97;5.97;;;;;;;11.55;30.60;101288.50;1750851;79;21239;-84
2021/04/10 09:37:57;;;;;;;6.27;5.67;;;;;;;11.33;31.43;101277.21;1751129;80;21718;-84
2021/04/10 09:40:47;;;;;;;6.63;5.83;;;;;;;11.34;31.46;101280.20;1709899;81;21808;-84
2021/04/10 09:45:58;;;;;;;5.77;5.27;;;;;;;11.25;31.37;101270.06;1736933;80;23086;-85
2021/04/10 09:48:28;;;;;;;5.47;5.00;;;;;;;11.21;31.19;101272.23;1745590;80;21171;-83
2021/04/10 09:50:59;;;;;;;5.80;5.20;;;;;;;11.15;31.36;101272.91;1728525;80;21532;-84
2021/04/10 09:53:28;;;;;;;7.10;5.20;;;;;;;11.19;31.45;101280.05;1754335;80;21763;-86
2021/04/10 09:56:00;;;;;;;6.47;5.87;;;;;;;11.26;31.57;101265.03;1732604;81;21700;-85
2021/04/10 09:58:42;;;;;;;6.40;5.43;;;;;;;11.38;31.76;101267.69;1758007;80;21224;-85
2021/04/10 10:01:14;;;;;;;6.47;5.97;;;;;;;11.48;31.49;101262.98;1740724;80;21108;-83
2021/04/10 10:03:57;;;;;;;;;;;;;;;;;;;;;
2021/04/10 10:06:51;;;;;;;6.97;6.37;;;;;;;11.61;31.94;101254.42;1803182;77;22902;-85
2021/04/10 10:09:26;;;;;;;7.33;6.63;;;;;;;11.66;31.79;101258.76;1811163;78;21208;-85
2021/04/10 10:11:57;;;;;;;6.17;5.67;;;;;;;11.63;31.85;101259.09;1790918;78;21044;-86
2021/04/10 10:14:44;;;;;;;7.87;5.47;;;;;;;11.48;31.09;101256.30;1769208;79;21209;-85
2021/04/10 10:17:12;;;;;;;8.03;5.70;;;;;;;11.35;31.19;101260.02;1768501;79;21694;-83
2021/04/10 10:19:41;;;;;;;6.50;5.37;;;;;;;11.39;31.00;101257.33;1749478;79;21693;-84
2021/04/10 10:22:28;;;;;;;6.70;6.10;;;;;;;11.45;31.14;101244.65;1745666;79;21182;-87
2021/04/10 10:25:01;;;;;;;6.70;6.10;;;;;;;11.52;31.12;101244.78;1755132;80;21163;-85
2021/04/10 10:27:35;;;;;;;7.20;6.50;;;;;;;11.59;31.23;101242.27;1767543;79;21174;-84
2021/04/10 10:30:18;;;;;;;6.87;6.27;;;;;;;11.64;31.64;101235.88;1771750;80;21338;-84
2021/04/10 10:32:50;;;;;;;8.93;7.03;;;;;;;11.74;32.24;101233.03;1727962;80;21230;-83
2021/04/10 10:35:26;;;;;;;6.57;5.97;;;;;;;11.88;31.61;101237.13;1768733;80;21092;-84
2021/04/10 10:37:57;;;;;;;6.97;6.37;;;;;;;11.88;31.34;101243.81;1749986;80;21637;-84
2021/04/10 10:40:26;;;;;;;8.33;6.23;;;;;;;10.97;31.43;101094.36;1691657;83;21235;-85
2021/04/10 10:43:06;;;;;;;7.37;6.67;;;;;;;11.82;31.20;101231.13;1719066;81;21230;-85
2021/04/10 10:45:50;;;;;;;8.37;6.43;;;;;;;11.76;31.54;101227.83;1712892;82;21147;-83
2021/04/10 10:48:27;;;;;;;7.70;7.03;;;;;;;11.67;31.63;101224.86;1744172;81;21359;-86
2021/04/10 10:51:06;;;;;;;8.20;5.77;;;;;;;11.69;31.65;101228.19;1729157;82;21163;-87
2021/04/10 10:53:41;;;;;;;6.53;5.93;;;;;;;11.77;31.39;101226.84;1725328;82;21491;-85
2021/04/10 10:56:21;;;;;;;6.13;5.63;;;;;;;11.78;31.13;101231.16;1716787;83;21220;-84
2021/04/10 10:58:59;;;;;;;6.10;5.43;;;;;;;11.74;31.64;101221.83;1687749;84;21204;-90
2021/04/10 11:01:40;;;;;;;7.53;5.40;;;;;;;11.75;31.45;101214.13;1692443;83;21174;-87
2021/04/10 11:04:21;;;;;;;5.10;4.60;;;;;;;11.74;30.65;101201.80;1708910;82;21217;-85
2021/04/10 11:06:57;;;;;;;5.03;4.53;;;;;;;11.78;30.70;101203.11;1707710;82;21262;-86
2021/04/10 11:09:29;;;;;;;4.23;3.93;;;;;;;11.86;30.75;101216.41;1685573;83;21210;-85
2021/04/10 11:12:03;;;;;;;7.20;4.67;;;;;;;11.98;30.83;101204.02;1714844;83;21118;-87
2021/04/10 11:14:34;;;;;;;5.67;5.10;;;;;;;12.09;30.87;101198.27;1714223;82;21318;-85
2021/04/10 11:17:03;;;;;;;5.50;4.73;;;;;;;12.05;30.24;101199.16;1729898;82;21639;-85
2021/04/10 11:19:37;;;;;;;5.20;4.70;;;;;;;11.93;30.65;101198.40;1717482;82;21214;-85
2021/04/10 11:22:16;;;;;;;5.13;4.73;;;;;;;11.90;30.80;101194.73;1708008;82;21202;-85
2021/04/10 11:24:50;;;;;;;5.27;4.83;;;;;;;11.93;30.95;101191.72;1678767;83;21191;-83
2021/04/10 11:27:23;;;;;;;9.20;4.90;;;;;;;12.02;30.99;101190.66;1683430;83;21609;-87
2021/04/10 11:29:59;;;;;;;4.63;3.67;;;;;;;12.08;30.02;101195.30;1693115;83;21198;-86
2021/04/10 11:32:43;;;;;;;5.93;4.17;;;;;;;12.11;30.02;101190.08;1685121;83;21191;-84
2021/04/10 11:35:20;;;;;;;4.77;4.47;;;;;;;12.10;30.15;101183.09;1684758;84;21137;-86
2021/04/10 11:37:52;;;;;;;4.40;3.77;;;;;;;12.07;30.20;101171.75;1660611;84;21344;-87
2021/04/10 11:40:33;;;;;;;5.67;5.00;;;;;;;12.01;30.75;101179.13;1689925;84;21235;-85
2021/04/10 11:43:06;;;;;;;4.13;3.70;;;;;;;11.98;30.06;101177.30;1686044;83;21351;-85
2021/04/10 11:45:40;;;;;;;4.60;3.60;;;;;;;11.97;29.48;101169.80;1673298;84;21178;-86
2021/04/10 11:48:19;;;;;;;2.83;2.63;;;;;;;11.87;29.57;101142.47;1703268;83;21890;-86
2021/04/10 11:50:58;;;;;;;3.17;3.02;;;;;;;12.01;28.75;101159.59;1707016;82;21710;-86
2021/04/10 11:53:38;;;;;;;4.00;3.60;;;;;;;12.02;28.54;101162.61;1663757;83;21241;-84
2021/04/10 11:56:27;;;;;;;3.87;3.10;;;;;;;12.01;28.94;101160.41;1702619;82;21130;-85